sensor_id;sensor_type;location;lat;lon;timestamp;temperature;humidity
47805;DHT22;33568;45.286;9.900;2023-04-25T00:00:37;16.20;82.80
47805;DHT22;33568;45.286;9.900;2023-04-25T00:03:04;16.20;83.10
47805;DHT22;33568;45.286;9.900;2023-04-25T00:05:31;16.10;84.70
47805;DHT22;33568;45.286;9.900;2023-04-25T00:07:58;16.10;83.10
47805;DHT22;33568;45.286;9.900;2023-04-25T00:10:24;16.00;85.50
47805;DHT22;33568;45.286;9.900;2023-04-25T00:12:51;16.10;83.20
47805;DHT22;33568;45.286;9.900;2023-04-25T00:15:17;16.00;85.10
47805;DHT22;33568;45.286;9.900;2023-04-25T00:17:43;16.10;83.20
47805;DHT22;33568;45.286;9.900;2023-04-25T00:20:11;16.00;85.10
47805;DHT22;33568;45.286;9.900;2023-04-25T00:22:38;16.00;83.40
47805;DHT22;33568;45.286;9.900;2023-04-25T00:25:05;16.10;83.60
47805;DHT22;33568;45.286;9.900;2023-04-25T00:27:32;16.10;84.20
47805;DHT22;33568;45.286;9.900;2023-04-25T00:29:59;16.10;83.70
47805;DHT22;33568;45.286;9.900;2023-04-25T00:32:26;16.20;83.60
47805;DHT22;33568;45.286;9.900;2023-04-25T00:34:52;16.20;83.60
47805;DHT22;33568;45.286;9.900;2023-04-25T00:37:19;16.10;84.80
47805;DHT22;33568;45.286;9.900;2023-04-25T00:39:45;16.10;83.40
47805;DHT22;33568;45.286;9.900;2023-04-25T00:42:12;16.20;83.20
47805;DHT22;33568;45.286;9.900;2023-04-25T00:44:38;16.10;84.40
47805;DHT22;33568;45.286;9.900;2023-04-25T00:47:06;16.10;83.80
47805;DHT22;33568;45.286;9.900;2023-04-25T00:49:32;16.10;83.50
47805;DHT22;33568;45.286;9.900;2023-04-25T00:51:59;16.10;83.70
47805;DHT22;33568;45.286;9.900;2023-04-25T00:54:25;16.00;85.60
47805;DHT22;33568;45.286;9.900;2023-04-25T00:56:52;16.10;83.80
47805;DHT22;33568;45.286;9.900;2023-04-25T00:59:19;16.10;83.90
47805;DHT22;33568;45.286;9.900;2023-04-25T01:01:46;16.10;84.20
47805;DHT22;33568;45.286;9.900;2023-04-25T01:04:13;16.00;84.60
47805;DHT22;33568;45.286;9.900;2023-04-25T01:06:40;16.00;85.00
47805;DHT22;33568;45.286;9.900;2023-04-25T01:09:07;16.00;85.40
47805;DHT22;33568;45.286;9.900;2023-04-25T01:11:33;16.00;85.70
47805;DHT22;33568;45.286;9.900;2023-04-25T01:14:00;16.00;85.90
47805;DHT22;33568;45.286;9.900;2023-04-25T01:16:28;15.80;88.40
47805;DHT22;33568;45.286;9.900;2023-04-25T01:18:54;15.80;86.40
47805;DHT22;33568;45.286;9.900;2023-04-25T01:21:21;15.80;86.60
47805;DHT22;33568;45.286;9.900;2023-04-25T01:23:48;15.90;86.90
47805;DHT22;33568;45.286;9.900;2023-04-25T01:26:15;15.90;87.10
47805;DHT22;33568;45.286;9.900;2023-04-25T01:28:42;15.80;87.20
47805;DHT22;33568;45.286;9.900;2023-04-25T01:31:11;15.90;87.40
47805;DHT22;33568;45.286;9.900;2023-04-25T01:33:38;15.80;87.80
47805;DHT22;33568;45.286;9.900;2023-04-25T01:36:05;15.80;87.90
47805;DHT22;33568;45.286;9.900;2023-04-25T01:38:31;15.70;89.80
47805;DHT22;33568;45.286;9.900;2023-04-25T01:40:58;15.80;87.70
47805;DHT22;33568;45.286;9.900;2023-04-25T01:43:24;15.80;87.90
47805;DHT22;33568;45.286;9.900;2023-04-25T01:45:52;15.80;88.00
47805;DHT22;33568;45.286;9.900;2023-04-25T01:48:19;15.70;88.40
47805;DHT22;33568;45.286;9.900;2023-04-25T01:50:47;15.70;88.60
47805;DHT22;33568;45.286;9.900;2023-04-25T01:53:13;15.70;88.80
47805;DHT22;33568;45.286;9.900;2023-04-25T01:55:42;15.60;90.20
47805;DHT22;33568;45.286;9.900;2023-04-25T01:58:11;15.60;88.60
47805;DHT22;33568;45.286;9.900;2023-04-25T02:00:56;15.60;88.90
47805;DHT22;33568;45.286;9.900;2023-04-25T02:03:26;15.60;88.90
47805;DHT22;33568;45.286;9.900;2023-04-25T02:05:53;15.60;89.10
47805;DHT22;33568;45.286;9.900;2023-04-25T02:08:22;15.60;89.20
47805;DHT22;33568;45.286;9.900;2023-04-25T02:10:49;15.60;89.50
47805;DHT22;33568;45.286;9.900;2023-04-25T02:13:19;15.50;90.40
47805;DHT22;33568;45.286;9.900;2023-04-25T02:16:14;15.50;89.20
47805;DHT22;33568;45.286;9.900;2023-04-25T02:18:40;15.50;89.30
47805;DHT22;33568;45.286;9.900;2023-04-25T02:21:06;15.40;90.50
47805;DHT22;33568;45.286;9.900;2023-04-25T02:23:33;15.50;89.50
47805;DHT22;33568;45.286;9.900;2023-04-25T02:26:00;15.30;90.60
47805;DHT22;33568;45.286;9.900;2023-04-25T02:28:26;15.40;89.40
47805;DHT22;33568;45.286;9.900;2023-04-25T02:30:53;15.40;89.50
47805;DHT22;33568;45.286;9.900;2023-04-25T02:33:19;15.30;90.50
47805;DHT22;33568;45.286;9.900;2023-04-25T02:35:47;15.40;89.40
47805;DHT22;33568;45.286;9.900;2023-04-25T02:38:13;15.40;89.60
47805;DHT22;33568;45.286;9.900;2023-04-25T02:40:40;15.40;89.70
47805;DHT22;33568;45.286;9.900;2023-04-25T02:43:07;15.40;90.00
47805;DHT22;33568;45.286;9.900;2023-04-25T02:45:33;15.30;90.80
47805;DHT22;33568;45.286;9.900;2023-04-25T02:48:00;15.30;90.00
47805;DHT22;33568;45.286;9.900;2023-04-25T02:50:26;15.30;90.00
47805;DHT22;33568;45.286;9.900;2023-04-25T02:52:52;15.20;90.70
47805;DHT22;33568;45.286;9.900;2023-04-25T02:55:25;15.30;89.80
47805;DHT22;33568;45.286;9.900;2023-04-25T02:57:52;15.20;89.80
47805;DHT22;33568;45.286;9.900;2023-04-25T03:00:32;15.20;89.90
47805;DHT22;33568;45.286;9.900;2023-04-25T03:02:58;15.20;90.00
47805;DHT22;33568;45.286;9.900;2023-04-25T03:05:25;15.20;90.10
47805;DHT22;33568;45.286;9.900;2023-04-25T03:07:51;15.20;90.20
47805;DHT22;33568;45.286;9.900;2023-04-25T03:10:17;15.10;90.90
47805;DHT22;33568;45.286;9.900;2023-04-25T03:12:44;15.20;90.20
47805;DHT22;33568;45.286;9.900;2023-04-25T03:15:10;15.20;90.10
47805;DHT22;33568;45.286;9.900;2023-04-25T03:17:37;15.10;90.80
47805;DHT22;33568;45.286;9.900;2023-04-25T03:20:04;15.20;90.10
47805;DHT22;33568;45.286;9.900;2023-04-25T03:22:31;15.20;90.20
47805;DHT22;33568;45.286;9.900;2023-04-25T03:24:58;15.20;90.20
47805;DHT22;33568;45.286;9.900;2023-04-25T03:27:24;15.30;90.20
47805;DHT22;33568;45.286;9.900;2023-04-25T03:29:51;15.30;90.20
47805;DHT22;33568;45.286;9.900;2023-04-25T03:32:18;15.30;90.30
47805;DHT22;33568;45.286;9.900;2023-04-25T03:34:46;15.30;90.30
47805;DHT22;33568;45.286;9.900;2023-04-25T03:37:12;15.20;90.40
47805;DHT22;33568;45.286;9.900;2023-04-25T03:39:40;15.20;91.00
47805;DHT22;33568;45.286;9.900;2023-04-25T03:42:07;15.20;90.30
47805;DHT22;33568;45.286;9.900;2023-04-25T03:44:33;15.20;90.40
47805;DHT22;33568;45.286;9.900;2023-04-25T03:47:00;15.20;90.50
47805;DHT22;33568;45.286;9.900;2023-04-25T03:49:27;15.20;90.60
47805;DHT22;33568;45.286;9.900;2023-04-25T03:51:58;15.10;91.40
47805;DHT22;33568;45.286;9.900;2023-04-25T03:54:24;15.10;90.60
47805;DHT22;33568;45.286;9.900;2023-04-25T03:56:56;15.10;90.80
47805;DHT22;33568;45.286;9.900;2023-04-25T03:59:26;14.90;91.00
47805;DHT22;33568;45.286;9.900;2023-04-25T04:01:53;14.70;91.40
47805;DHT22;33568;45.286;9.900;2023-04-25T04:04:20;14.50;91.90
47805;DHT22;33568;45.286;9.900;2023-04-25T04:06:47;14.40;92.20
47805;DHT22;33568;45.286;9.900;2023-04-25T04:09:18;14.50;92.30
47805;DHT22;33568;45.286;9.900;2023-04-25T04:11:47;14.50;92.40
47805;DHT22;33568;45.286;9.900;2023-04-25T04:14:13;14.50;92.40
47805;DHT22;33568;45.286;9.900;2023-04-25T04:16:44;14.50;92.40
47805;DHT22;33568;45.286;9.900;2023-04-25T04:19:11;14.50;92.50
47805;DHT22;33568;45.286;9.900;2023-04-25T04:21:40;14.50;92.50
47805;DHT22;33568;45.286;9.900;2023-04-25T04:24:07;14.50;92.40
47805;DHT22;33568;45.286;9.900;2023-04-25T04:26:45;14.60;92.40
47805;DHT22;33568;45.286;9.900;2023-04-25T04:29:31;14.60;92.30
47805;DHT22;33568;45.286;9.900;2023-04-25T04:32:01;14.70;92.20
47805;DHT22;33568;45.286;9.900;2023-04-25T04:34:29;14.70;92.20
47805;DHT22;33568;45.286;9.900;2023-04-25T04:36:55;14.70;92.10
47805;DHT22;33568;45.286;9.900;2023-04-25T04:39:22;14.70;92.10
47805;DHT22;33568;45.286;9.900;2023-04-25T04:42:00;14.70;92.10
47805;DHT22;33568;45.286;9.900;2023-04-25T04:44:45;14.80;92.10
47805;DHT22;33568;45.286;9.900;2023-04-25T04:47:31;14.80;92.00
47805;DHT22;33568;45.286;9.900;2023-04-25T04:50:12;14.80;92.00
47805;DHT22;33568;45.286;9.900;2023-04-25T04:52:57;14.80;91.90
47805;DHT22;33568;45.286;9.900;2023-04-25T04:55:37;14.80;91.90
47805;DHT22;33568;45.286;9.900;2023-04-25T04:58:26;14.90;91.90
47805;DHT22;33568;45.286;9.900;2023-04-25T05:01:29;14.90;91.90
47805;DHT22;33568;45.286;9.900;2023-04-25T05:04:03;14.90;91.90
47805;DHT22;33568;45.286;9.900;2023-04-25T05:06:59;14.90;91.90
47805;DHT22;33568;45.286;9.900;2023-04-25T05:09:28;15.00;91.90
47805;DHT22;33568;45.286;9.900;2023-04-25T05:12:10;15.00;91.90
47805;DHT22;33568;45.286;9.900;2023-04-25T05:14:57;15.10;91.80
47805;DHT22;33568;45.286;9.900;2023-04-25T05:17:55;15.10;91.80
47805;DHT22;33568;45.286;9.900;2023-04-25T05:20:45;15.20;91.70
47805;DHT22;33568;45.286;9.900;2023-04-25T05:23:23;15.30;91.60
47805;DHT22;33568;45.286;9.900;2023-04-25T05:25:50;15.20;91.50
47805;DHT22;33568;45.286;9.900;2023-04-25T05:28:51;15.20;91.70
47805;DHT22;33568;45.286;9.900;2023-04-25T05:31:37;15.30;91.80
47805;DHT22;33568;45.286;9.900;2023-04-25T05:34:12;15.30;91.70
47805;DHT22;33568;45.286;9.900;2023-04-25T05:37:05;15.40;91.70
47805;DHT22;33568;45.286;9.900;2023-04-25T05:39:36;15.50;91.70
47805;DHT22;33568;45.286;9.900;2023-04-25T05:42:40;15.60;91.50
47805;DHT22;33568;45.286;9.900;2023-04-25T05:45:27;15.70;91.40
47805;DHT22;33568;45.286;9.900;2023-04-25T05:48:29;15.80;91.30
47805;DHT22;33568;45.286;9.900;2023-04-25T05:51:14;15.80;91.30
47805;DHT22;33568;45.286;9.900;2023-04-25T05:54:05;15.70;91.40
47805;DHT22;33568;45.286;9.900;2023-04-25T05:56:33;15.70;91.50
47805;DHT22;33568;45.286;9.900;2023-04-25T05:59:01;15.70;91.50
47805;DHT22;33568;45.286;9.900;2023-04-25T06:01:27;15.70;91.60
47805;DHT22;33568;45.286;9.900;2023-04-25T06:03:54;15.70;91.90
47805;DHT22;33568;45.286;9.900;2023-04-25T06:06:20;15.90;91.60
47805;DHT22;33568;45.286;9.900;2023-04-25T06:08:46;16.10;91.50
47805;DHT22;33568;45.286;9.900;2023-04-25T06:11:13;16.20;91.10
47805;DHT22;33568;45.286;9.900;2023-04-25T06:13:39;16.20;91.10
47805;DHT22;33568;45.286;9.900;2023-04-25T06:16:06;16.30;90.90
47805;DHT22;33568;45.286;9.900;2023-04-25T06:18:33;16.30;90.60
47805;DHT22;33568;45.286;9.900;2023-04-25T06:20:59;16.30;90.40
47805;DHT22;33568;45.286;9.900;2023-04-25T06:23:26;16.20;90.40
47805;DHT22;33568;45.286;9.900;2023-04-25T06:26:07;16.30;90.30
47805;DHT22;33568;45.286;9.900;2023-04-25T06:28:36;16.50;89.60
47805;DHT22;33568;45.286;9.900;2023-04-25T06:31:03;16.60;88.80
47805;DHT22;33568;45.286;9.900;2023-04-25T06:33:29;16.60;88.20
47805;DHT22;33568;45.286;9.900;2023-04-25T06:35:56;16.60;88.60
47805;DHT22;33568;45.286;9.900;2023-04-25T06:38:26;16.70;88.10
47805;DHT22;33568;45.286;9.900;2023-04-25T06:40:55;16.70;87.60
47805;DHT22;33568;45.286;9.900;2023-04-25T06:43:21;16.80;87.30
47805;DHT22;33568;45.286;9.900;2023-04-25T06:46:05;16.80;84.80
47805;DHT22;33568;45.286;9.900;2023-04-25T06:48:36;16.90;86.50
47805;DHT22;33568;45.286;9.900;2023-04-25T06:51:05;17.00;86.30
47805;DHT22;33568;45.286;9.900;2023-04-25T06:53:31;17.10;86.30
47805;DHT22;33568;45.286;9.900;2023-04-25T06:56:02;17.20;86.20
47805;DHT22;33568;45.286;9.900;2023-04-25T06:58:45;17.30;86.30
47805;DHT22;33568;45.286;9.900;2023-04-25T07:01:16;17.40;86.20
47805;DHT22;33568;45.286;9.900;2023-04-25T07:03:42;17.40;85.90
47805;DHT22;33568;45.286;9.900;2023-04-25T07:06:14;17.40;86.10
47805;DHT22;33568;45.286;9.900;2023-04-25T07:08:41;17.50;85.30
47805;DHT22;33568;45.286;9.900;2023-04-25T07:11:07;17.60;83.20
47805;DHT22;33568;45.286;9.900;2023-04-25T07:13:33;17.60;82.70
47805;DHT22;33568;45.286;9.900;2023-04-25T07:16:00;17.80;82.50
47805;DHT22;33568;45.286;9.900;2023-04-25T07:18:28;17.90;82.00
47805;DHT22;33568;45.286;9.900;2023-04-25T07:20:55;18.00;79.10
47805;DHT22;33568;45.286;9.900;2023-04-25T07:23:21;18.00;80.70
47805;DHT22;33568;45.286;9.900;2023-04-25T07:25:47;18.10;79.20
47805;DHT22;33568;45.286;9.900;2023-04-25T07:28:18;18.20;78.40
47805;DHT22;33568;45.286;9.900;2023-04-25T07:30:44;18.20;76.90
47805;DHT22;33568;45.286;9.900;2023-04-25T07:33:10;18.30;76.90
47805;DHT22;33568;45.286;9.900;2023-04-25T07:35:36;18.40;76.90
47805;DHT22;33568;45.286;9.900;2023-04-25T07:38:03;18.60;77.30
47805;DHT22;33568;45.286;9.900;2023-04-25T07:40:29;18.70;77.90
47805;DHT22;33568;45.286;9.900;2023-04-25T07:43:02;19.00;75.70
47805;DHT22;33568;45.286;9.900;2023-04-25T07:45:38;19.10;72.90
47805;DHT22;33568;45.286;9.900;2023-04-25T07:48:04;19.20;73.40
47805;DHT22;33568;45.286;9.900;2023-04-25T07:50:35;19.20;73.50
47805;DHT22;33568;45.286;9.900;2023-04-25T07:53:01;19.10;73.70
47805;DHT22;33568;45.286;9.900;2023-04-25T07:55:33;19.00;73.10
47805;DHT22;33568;45.286;9.900;2023-04-25T07:58:09;18.90;73.30
47805;DHT22;33568;45.286;9.900;2023-04-25T08:00:39;18.90;74.90
47805;DHT22;33568;45.286;9.900;2023-04-25T08:03:23;18.90;74.30
47805;DHT22;33568;45.286;9.900;2023-04-25T08:05:50;18.90;73.90
47805;DHT22;33568;45.286;9.900;2023-04-25T08:08:18;18.90;73.60
47805;DHT22;33568;45.286;9.900;2023-04-25T08:10:45;18.80;73.60
47805;DHT22;33568;45.286;9.900;2023-04-25T08:13:12;18.70;74.60
47805;DHT22;33568;45.286;9.900;2023-04-25T08:15:40;18.70;75.10
47805;DHT22;33568;45.286;9.900;2023-04-25T08:18:06;18.70;75.10
47805;DHT22;33568;45.286;9.900;2023-04-25T08:20:33;18.70;74.70
47805;DHT22;33568;45.286;9.900;2023-04-25T08:23:02;18.70;74.50
47805;DHT22;33568;45.286;9.900;2023-04-25T08:25:49;18.80;74.70
47805;DHT22;33568;45.286;9.900;2023-04-25T08:28:18;18.90;74.30
47805;DHT22;33568;45.286;9.900;2023-04-25T08:30:45;18.90;74.10
47805;DHT22;33568;45.286;9.900;2023-04-25T08:33:13;18.90;71.90
47805;DHT22;33568;45.286;9.900;2023-04-25T08:35:54;19.10;74.90
47805;DHT22;33568;45.286;9.900;2023-04-25T08:38:21;19.30;73.90
47805;DHT22;33568;45.286;9.900;2023-04-25T08:40:49;19.30;73.20
47805;DHT22;33568;45.286;9.900;2023-04-25T08:43:18;19.20;73.60
47805;DHT22;33568;45.286;9.900;2023-04-25T08:45:45;19.20;73.10
47805;DHT22;33568;45.286;9.900;2023-04-25T08:48:34;19.10;73.10
47805;DHT22;33568;45.286;9.900;2023-04-25T08:51:01;19.30;72.80
47805;DHT22;33568;45.286;9.900;2023-04-25T08:53:29;19.70;71.50
47805;DHT22;33568;45.286;9.900;2023-04-25T08:55:58;19.90;70.90
47805;DHT22;33568;45.286;9.900;2023-04-25T08:58:25;20.00;70.00
47805;DHT22;33568;45.286;9.900;2023-04-25T09:00:52;20.00;69.60
47805;DHT22;33568;45.286;9.900;2023-04-25T09:03:20;19.80;69.30
47805;DHT22;33568;45.286;9.900;2023-04-25T09:05:50;19.60;70.20
47805;DHT22;33568;45.286;9.900;2023-04-25T09:08:17;19.70;70.20
47805;DHT22;33568;45.286;9.900;2023-04-25T09:10:43;19.70;69.60
47805;DHT22;33568;45.286;9.900;2023-04-25T09:13:13;19.90;68.10
47805;DHT22;33568;45.286;9.900;2023-04-25T09:16:13;19.80;67.80
47805;DHT22;33568;45.286;9.900;2023-04-25T09:19:01;19.90;68.50
47805;DHT22;33568;45.286;9.900;2023-04-25T09:21:29;20.30;64.80
47805;DHT22;33568;45.286;9.900;2023-04-25T09:23:56;20.30;64.90
47805;DHT22;33568;45.286;9.900;2023-04-25T09:26:26;20.40;65.70
47805;DHT22;33568;45.286;9.900;2023-04-25T09:29:04;20.50;65.90
47805;DHT22;33568;45.286;9.900;2023-04-25T09:31:31;20.30;65.60
47805;DHT22;33568;45.286;9.900;2023-04-25T09:34:01;20.30;66.20
47805;DHT22;33568;45.286;9.900;2023-04-25T09:36:29;20.30;65.50
47805;DHT22;33568;45.286;9.900;2023-04-25T09:39:02;20.00;64.40
47805;DHT22;33568;45.286;9.900;2023-04-25T09:41:33;19.90;65.30
47805;DHT22;33568;45.286;9.900;2023-04-25T09:44:03;20.00;64.00
47805;DHT22;33568;45.286;9.900;2023-04-25T09:46:35;20.00;61.40
47805;DHT22;33568;45.286;9.900;2023-04-25T09:49:11;20.00;63.10
47805;DHT22;33568;45.286;9.900;2023-04-25T09:52:01;20.10;63.40
47805;DHT22;33568;45.286;9.900;2023-04-25T09:54:42;20.20;62.90
47805;DHT22;33568;45.286;9.900;2023-04-25T09:57:24;20.40;63.30
47805;DHT22;33568;45.286;9.900;2023-04-25T09:59:52;20.80;63.20
47805;DHT22;33568;45.286;9.900;2023-04-25T10:02:20;21.00;61.90
47805;DHT22;33568;45.286;9.900;2023-04-25T10:04:49;21.10;62.00
47805;DHT22;33568;45.286;9.900;2023-04-25T10:07:24;21.40;62.20
47805;DHT22;33568;45.286;9.900;2023-04-25T10:09:55;21.50;60.90
47805;DHT22;33568;45.286;9.900;2023-04-25T10:12:25;21.40;59.20
47805;DHT22;33568;45.286;9.900;2023-04-25T10:14:52;21.30;59.70
47805;DHT22;33568;45.286;9.900;2023-04-25T10:17:18;21.40;60.40
47805;DHT22;33568;45.286;9.900;2023-04-25T10:19:46;21.60;59.50
47805;DHT22;33568;45.286;9.900;2023-04-25T10:22:14;21.70;59.80
47805;DHT22;33568;45.286;9.900;2023-04-25T10:24:43;21.70;59.20
47805;DHT22;33568;45.286;9.900;2023-04-25T10:27:10;21.60;59.40
47805;DHT22;33568;45.286;9.900;2023-04-25T10:29:36;21.50;59.20
47805;DHT22;33568;45.286;9.900;2023-04-25T10:32:03;21.40;59.70
47805;DHT22;33568;45.286;9.900;2023-04-25T10:34:39;21.30;60.10
47805;DHT22;33568;45.286;9.900;2023-04-25T10:37:10;21.50;59.50
47805;DHT22;33568;45.286;9.900;2023-04-25T10:39:38;21.40;58.70
47805;DHT22;33568;45.286;9.900;2023-04-25T10:42:04;21.30;60.20
47805;DHT22;33568;45.286;9.900;2023-04-25T10:44:31;21.30;60.20
47805;DHT22;33568;45.286;9.900;2023-04-25T10:46:58;21.40;60.30
47805;DHT22;33568;45.286;9.900;2023-04-25T10:49:31;21.50;59.70
47805;DHT22;33568;45.286;9.900;2023-04-25T10:52:16;21.70;60.20
47805;DHT22;33568;45.286;9.900;2023-04-25T10:54:46;22.20;58.90
47805;DHT22;33568;45.286;9.900;2023-04-25T10:59:58;22.90;56.80
47805;DHT22;33568;45.286;9.900;2023-04-25T11:02:26;23.00;56.00
47805;DHT22;33568;45.286;9.900;2023-04-25T11:04:54;23.20;57.00
47805;DHT22;33568;45.286;9.900;2023-04-25T11:10:06;22.70;55.60
47805;DHT22;33568;45.286;9.900;2023-04-25T11:12:32;22.40;56.90
47805;DHT22;33568;45.286;9.900;2023-04-25T11:15:02;22.20;57.00
47805;DHT22;33568;45.286;9.900;2023-04-25T11:17:29;22.20;57.30
47805;DHT22;33568;45.286;9.900;2023-04-25T11:19:55;22.30;57.00
47805;DHT22;33568;45.286;9.900;2023-04-25T11:22:22;22.50;56.80
47805;DHT22;33568;45.286;9.900;2023-04-25T11:24:48;22.50;56.70
47805;DHT22;33568;45.286;9.900;2023-04-25T11:27:15;22.80;57.40
47805;DHT22;33568;45.286;9.900;2023-04-25T11:29:41;23.20;55.90
47805;DHT22;33568;45.286;9.900;2023-04-25T11:32:07;23.20;56.60
47805;DHT22;33568;45.286;9.900;2023-04-25T11:34:33;23.10;55.90
47805;DHT22;33568;45.286;9.900;2023-04-25T11:37:00;23.10;55.80
47805;DHT22;33568;45.286;9.900;2023-04-25T11:39:28;23.20;55.90
47805;DHT22;33568;45.286;9.900;2023-04-25T11:41:54;23.30;55.10
47805;DHT22;33568;45.286;9.900;2023-04-25T11:44:21;23.20;55.60
47805;DHT22;33568;45.286;9.900;2023-04-25T11:46:47;23.30;57.10
47805;DHT22;33568;45.286;9.900;2023-04-25T11:49:14;23.40;55.60
47805;DHT22;33568;45.286;9.900;2023-04-25T11:51:41;23.50;55.60
47805;DHT22;33568;45.286;9.900;2023-04-25T11:54:07;23.70;55.20
47805;DHT22;33568;45.286;9.900;2023-04-25T11:56:33;23.70;54.80
47805;DHT22;33568;45.286;9.900;2023-04-25T11:59:00;23.70;54.60
47805;DHT22;33568;45.286;9.900;2023-04-25T12:01:32;23.50;54.60
47805;DHT22;33568;45.286;9.900;2023-04-25T12:03:59;23.40;54.60
47805;DHT22;33568;45.286;9.900;2023-04-25T12:06:39;23.30;54.80
47805;DHT22;33568;45.286;9.900;2023-04-25T12:09:12;23.40;54.50
47805;DHT22;33568;45.286;9.900;2023-04-25T12:11:42;23.60;54.70
47805;DHT22;33568;45.286;9.900;2023-04-25T12:14:10;23.70;54.70
47805;DHT22;33568;45.286;9.900;2023-04-25T12:16:43;23.80;54.00
47805;DHT22;33568;45.286;9.900;2023-04-25T12:19:13;23.80;54.50
47805;DHT22;33568;45.286;9.900;2023-04-25T12:21:40;23.70;53.30
47805;DHT22;33568;45.286;9.900;2023-04-25T12:24:16;23.60;54.40
47805;DHT22;33568;45.286;9.900;2023-04-25T12:26:47;23.50;53.70
47805;DHT22;33568;45.286;9.900;2023-04-25T12:29:17;23.40;53.40
47805;DHT22;33568;45.286;9.900;2023-04-25T12:31:43;23.40;53.50
47805;DHT22;33568;45.286;9.900;2023-04-25T12:34:10;23.50;53.70
47805;DHT22;33568;45.286;9.900;2023-04-25T12:36:37;23.50;54.20
47805;DHT22;33568;45.286;9.900;2023-04-25T12:39:03;23.80;54.10
47805;DHT22;33568;45.286;9.900;2023-04-25T12:41:30;24.20;53.70
47805;DHT22;33568;45.286;9.900;2023-04-25T12:43:56;24.50;52.50
47805;DHT22;33568;45.286;9.900;2023-04-25T12:46:23;24.50;52.20
47805;DHT22;33568;45.286;9.900;2023-04-25T12:48:49;24.10;52.50
47805;DHT22;33568;45.286;9.900;2023-04-25T12:51:15;24.00;54.30
47805;DHT22;33568;45.286;9.900;2023-04-25T12:53:41;23.70;54.60
47805;DHT22;33568;45.286;9.900;2023-04-25T12:56:08;23.70;54.10
47805;DHT22;33568;45.286;9.900;2023-04-25T12:58:34;23.60;53.90
47805;DHT22;33568;45.286;9.900;2023-04-25T13:01:00;23.40;54.20
47805;DHT22;33568;45.286;9.900;2023-04-25T13:03:27;23.30;53.80
47805;DHT22;33568;45.286;9.900;2023-04-25T13:05:53;23.30;54.60
47805;DHT22;33568;45.286;9.900;2023-04-25T13:08:20;23.20;53.80
47805;DHT22;33568;45.286;9.900;2023-04-25T13:10:49;23.20;53.80
47805;DHT22;33568;45.286;9.900;2023-04-25T13:13:16;23.30;55.00
47805;DHT22;33568;45.286;9.900;2023-04-25T13:15:42;23.30;54.60
47805;DHT22;33568;45.286;9.900;2023-04-25T13:18:09;23.20;53.70
47805;DHT22;33568;45.286;9.900;2023-04-25T13:20:35;23.00;53.30
47805;DHT22;33568;45.286;9.900;2023-04-25T13:23:01;22.90;53.90
47805;DHT22;33568;45.286;9.900;2023-04-25T13:25:28;22.90;55.00
47805;DHT22;33568;45.286;9.900;2023-04-25T13:27:54;22.90;54.80
47805;DHT22;33568;45.286;9.900;2023-04-25T13:30:20;22.90;54.90
47805;DHT22;33568;45.286;9.900;2023-04-25T13:32:46;22.80;54.90
47805;DHT22;33568;45.286;9.900;2023-04-25T13:35:13;22.70;55.60
47805;DHT22;33568;45.286;9.900;2023-04-25T13:37:39;22.70;56.20
47805;DHT22;33568;45.286;9.900;2023-04-25T13:40:07;22.70;55.20
47805;DHT22;33568;45.286;9.900;2023-04-25T13:42:38;22.60;55.80
47805;DHT22;33568;45.286;9.900;2023-04-25T13:45:04;22.50;55.80
47805;DHT22;33568;45.286;9.900;2023-04-25T13:47:32;22.50;56.60
47805;DHT22;33568;45.286;9.900;2023-04-25T13:49:58;22.60;56.10
47805;DHT22;33568;45.286;9.900;2023-04-25T13:52:25;22.60;56.40
47805;DHT22;33568;45.286;9.900;2023-04-25T13:54:51;22.60;57.40
47805;DHT22;33568;45.286;9.900;2023-04-25T13:57:18;22.60;56.10
47805;DHT22;33568;45.286;9.900;2023-04-25T13:59:44;22.60;56.10
47805;DHT22;33568;45.286;9.900;2023-04-25T14:02:10;22.60;55.50
47805;DHT22;33568;45.286;9.900;2023-04-25T14:04:36;22.40;55.70
47805;DHT22;33568;45.286;9.900;2023-04-25T14:07:03;21.70;53.30
47805;DHT22;33568;45.286;9.900;2023-04-25T14:09:29;20.90;56.10
47805;DHT22;33568;45.286;9.900;2023-04-25T14:11:55;20.20;58.90
47805;DHT22;33568;45.286;9.900;2023-04-25T14:14:22;19.70;61.20
47805;DHT22;33568;45.286;9.900;2023-04-25T14:16:49;19.40;61.50
47805;DHT22;33568;45.286;9.900;2023-04-25T14:19:16;19.00;63.00
47805;DHT22;33568;45.286;9.900;2023-04-25T14:21:42;18.70;62.20
47805;DHT22;33568;45.286;9.900;2023-04-25T14:24:09;18.50;63.20
47805;DHT22;33568;45.286;9.900;2023-04-25T14:26:36;18.30;63.70
47805;DHT22;33568;45.286;9.900;2023-04-25T14:29:03;18.30;64.40
47805;DHT22;33568;45.286;9.900;2023-04-25T14:31:30;18.30;64.80
47805;DHT22;33568;45.286;9.900;2023-04-25T14:33:56;18.40;65.60
47805;DHT22;33568;45.286;9.900;2023-04-25T14:36:22;18.40;65.00
47805;DHT22;33568;45.286;9.900;2023-04-25T14:38:48;18.40;64.00
47805;DHT22;33568;45.286;9.900;2023-04-25T14:41:14;18.60;62.40
47805;DHT22;33568;45.286;9.900;2023-04-25T14:43:41;18.70;62.30
47805;DHT22;33568;45.286;9.900;2023-04-25T14:46:08;18.80;63.40
47805;DHT22;33568;45.286;9.900;2023-04-25T14:48:34;19.00;62.80
47805;DHT22;33568;45.286;9.900;2023-04-25T14:51:00;19.00;64.20
47805;DHT22;33568;45.286;9.900;2023-04-25T14:53:27;19.20;64.90
47805;DHT22;33568;45.286;9.900;2023-04-25T14:55:53;19.50;63.70
47805;DHT22;33568;45.286;9.900;2023-04-25T14:58:19;19.60;63.30
47805;DHT22;33568;45.286;9.900;2023-04-25T15:00:46;19.80;63.70
47805;DHT22;33568;45.286;9.900;2023-04-25T15:03:12;20.00;63.80
47805;DHT22;33568;45.286;9.900;2023-04-25T15:05:39;20.10;62.30
47805;DHT22;33568;45.286;9.900;2023-04-25T15:08:06;20.10;62.40
47805;DHT22;33568;45.286;9.900;2023-04-25T15:10:32;20.20;61.70
47805;DHT22;33568;45.286;9.900;2023-04-25T15:12:58;20.40;62.10
47805;DHT22;33568;45.286;9.900;2023-04-25T15:15:24;20.60;60.50
47805;DHT22;33568;45.286;9.900;2023-04-25T15:17:50;20.80;60.00
47805;DHT22;33568;45.286;9.900;2023-04-25T15:20:16;21.00;60.10
47805;DHT22;33568;45.286;9.900;2023-04-25T15:22:43;21.10;59.60
47805;DHT22;33568;45.286;9.900;2023-04-25T15:25:10;21.10;59.60
47805;DHT22;33568;45.286;9.900;2023-04-25T15:27:37;21.00;60.60
47805;DHT22;33568;45.286;9.900;2023-04-25T15:30:10;20.80;60.20
47805;DHT22;33568;45.286;9.900;2023-04-25T15:32:41;20.60;61.30
47805;DHT22;33568;45.286;9.900;2023-04-25T15:35:07;20.60;62.50
47805;DHT22;33568;45.286;9.900;2023-04-25T15:37:34;20.50;64.00
47805;DHT22;33568;45.286;9.900;2023-04-25T15:40:05;20.40;65.00
47805;DHT22;33568;45.286;9.900;2023-04-25T15:42:35;20.10;66.10
47805;DHT22;33568;45.286;9.900;2023-04-25T15:45:03;19.90;67.50
47805;DHT22;33568;45.286;9.900;2023-04-25T15:47:29;19.70;66.30
47805;DHT22;33568;45.286;9.900;2023-04-25T15:49:55;19.50;66.70